sensor_id;sensor_type;location;lat;lon;timestamp;temperature;humidity
23507;DHT22;11930;53.076;18.250;2023-03-24T00:00:18;6.90;99.90
23507;DHT22;11930;53.076;18.250;2023-03-24T00:03:05;6.90;99.90
23507;DHT22;11930;53.076;18.250;2023-03-24T00:05:32;6.90;99.90
23507;DHT22;11930;53.076;18.250;2023-03-24T00:07:59;6.80;99.90
23507;DHT22;11930;53.076;18.250;2023-03-24T00:10:28;6.80;99.90
23507;DHT22;11930;53.076;18.250;2023-03-24T00:12:56;6.80;99.90
23507;DHT22;11930;53.076;18.250;2023-03-24T00:15:54;6.70;99.90
23507;DHT22;11930;53.076;18.250;2023-03-24T00:18:51;6.70;99.90
23507;DHT22;11930;53.076;18.250;2023-03-24T00:21:19;6.70;99.90
23507;DHT22;11930;53.076;18.250;2023-03-24T00:23:50;6.70;99.90
23507;DHT22;11930;53.076;18.250;2023-03-24T00:26:20;6.70;99.90
23507;DHT22;11930;53.076;18.250;2023-03-24T00:29:33;6.60;99.90
23507;DHT22;11930;53.076;18.250;2023-03-24T00:32:19;6.60;99.90
23507;DHT22;11930;53.076;18.250;2023-03-24T03:41:19;6.60;99.90
23507;DHT22;11930;53.076;18.250;2023-03-24T03:43:48;6.60;99.90
23507;DHT22;11930;53.076;18.250;2023-03-24T03:46:15;6.60;99.90
23507;DHT22;11930;53.076;18.250;2023-03-24T03:48:44;6.60;99.90
23507;DHT22;11930;53.076;18.250;2023-03-24T03:51:12;6.60;99.90
23507;DHT22;11930;53.076;18.250;2023-03-24T03:54:02;6.60;99.90
23507;DHT22;11930;53.076;18.250;2023-03-24T03:56:32;6.70;99.90
23507;DHT22;11930;53.076;18.250;2023-03-24T03:59:39;6.70;99.90
23507;DHT22;11930;53.076;18.250;2023-03-24T04:08:43;6.90;99.90
23507;DHT22;11930;53.076;18.250;2023-03-24T04:31:47;7.40;99.90
23507;DHT22;11930;53.076;18.250;2023-03-24T04:34:26;7.40;99.90
23507;DHT22;11930;53.076;18.250;2023-03-24T04:37:16;7.50;99.90
23507;DHT22;11930;53.076;18.250;2023-03-24T04:40:07;7.60;99.90
23507;DHT22;11930;53.076;18.250;2023-03-24T04:42:44;7.70;99.90
23507;DHT22;11930;53.076;18.250;2023-03-24T04:45:13;7.70;99.90
23507;DHT22;11930;53.076;18.250;2023-03-24T04:48:02;7.70;99.90
23507;DHT22;11930;53.076;18.250;2023-03-24T04:50:55;7.70;99.90
23507;DHT22;11930;53.076;18.250;2023-03-24T04:53:23;7.70;99.90
23507;DHT22;11930;53.076;18.250;2023-03-24T04:58:45;7.70;99.90
23507;DHT22;11930;53.076;18.250;2023-03-24T05:01:11;7.70;99.90
23507;DHT22;11930;53.076;18.250;2023-03-24T05:03:44;7.70;99.90
23507;DHT22;11930;53.076;18.250;2023-03-24T05:06:11;7.70;99.90
23507;DHT22;11930;53.076;18.250;2023-03-24T05:08:41;7.80;99.90
23507;DHT22;11930;53.076;18.250;2023-03-24T05:11:07;7.80;99.90
23507;DHT22;11930;53.076;18.250;2023-03-24T05:13:34;7.80;99.90
23507;DHT22;11930;53.076;18.250;2023-03-24T05:16:02;7.80;99.90
23507;DHT22;11930;53.076;18.250;2023-03-24T05:18:46;7.90;99.90
23507;DHT22;11930;53.076;18.250;2023-03-24T05:21:13;7.90;99.90
23507;DHT22;11930;53.076;18.250;2023-03-24T05:23:39;8.00;99.90
23507;DHT22;11930;53.076;18.250;2023-03-24T05:26:05;8.00;99.90
23507;DHT22;11930;53.076;18.250;2023-03-24T05:28:40;8.10;99.90
23507;DHT22;11930;53.076;18.250;2023-03-24T05:31:07;8.10;99.90
23507;DHT22;11930;53.076;18.250;2023-03-24T05:33:54;8.10;99.90
23507;DHT22;11930;53.076;18.250;2023-03-24T05:36:22;8.20;99.90
23507;DHT22;11930;53.076;18.250;2023-03-24T05:38:56;8.20;99.90
23507;DHT22;11930;53.076;18.250;2023-03-24T05:41:30;8.30;99.90
23507;DHT22;11930;53.076;18.250;2023-03-24T05:43:56;8.30;99.90
23507;DHT22;11930;53.076;18.250;2023-03-24T05:46:23;8.30;99.90
23507;DHT22;11930;53.076;18.250;2023-03-24T05:48:50;8.40;99.90
23507;DHT22;11930;53.076;18.250;2023-03-24T05:51:18;8.40;99.90
23507;DHT22;11930;53.076;18.250;2023-03-24T05:53:50;8.50;99.90
23507;DHT22;11930;53.076;18.250;2023-03-24T05:56:19;8.60;99.90
23507;DHT22;11930;53.076;18.250;2023-03-24T05:59:08;8.60;99.90
23507;DHT22;11930;53.076;18.250;2023-03-24T06:01:51;8.70;99.90
23507;DHT22;11930;53.076;18.250;2023-03-24T06:04:38;8.80;99.90
23507;DHT22;11930;53.076;18.250;2023-03-24T06:07:13;8.80;99.90
23507;DHT22;11930;53.076;18.250;2023-03-24T06:09:42;8.90;99.90
23507;DHT22;11930;53.076;18.250;2023-03-24T06:12:13;8.90;99.90
23507;DHT22;11930;53.076;18.250;2023-03-24T06:14:49;9.00;99.90
23507;DHT22;11930;53.076;18.250;2023-03-24T06:17:15;9.10;99.90
23507;DHT22;11930;53.076;18.250;2023-03-24T06:19:44;9.10;99.90
23507;DHT22;11930;53.076;18.250;2023-03-24T06:22:27;9.20;99.90
23507;DHT22;11930;53.076;18.250;2023-03-24T06:24:53;9.30;99.90
23507;DHT22;11930;53.076;18.250;2023-03-24T06:27:22;9.30;99.90
23507;DHT22;11930;53.076;18.250;2023-03-24T06:29:51;9.50;99.90
23507;DHT22;11930;53.076;18.250;2023-03-24T06:32:19;9.50;99.90
23507;DHT22;11930;53.076;18.250;2023-03-24T06:34:45;9.60;99.90
23507;DHT22;11930;53.076;18.250;2023-03-24T06:37:29;9.70;99.90
23507;DHT22;11930;53.076;18.250;2023-03-24T06:39:56;9.80;99.90
23507;DHT22;11930;53.076;18.250;2023-03-24T06:42:25;9.90;99.90
23507;DHT22;11930;53.076;18.250;2023-03-24T06:44:52;10.00;99.90
23507;DHT22;11930;53.076;18.250;2023-03-24T06:47:18;10.10;99.90
23507;DHT22;11930;53.076;18.250;2023-03-24T06:49:45;10.20;99.90
23507;DHT22;11930;53.076;18.250;2023-03-24T06:52:11;10.30;99.90
23507;DHT22;11930;53.076;18.250;2023-03-24T06:54:40;10.50;99.90
23507;DHT22;11930;53.076;18.250;2023-03-24T06:57:06;10.70;99.90
23507;DHT22;11930;53.076;18.250;2023-03-24T06:59:52;10.90;99.90
23507;DHT22;11930;53.076;18.250;2023-03-24T07:02:20;11.20;99.90
23507;DHT22;11930;53.076;18.250;2023-03-24T07:04:49;11.40;99.90
23507;DHT22;11930;53.076;18.250;2023-03-24T07:07:27;11.50;99.90
23507;DHT22;11930;53.076;18.250;2023-03-24T07:10:13;11.80;99.90
23507;DHT22;11930;53.076;18.250;2023-03-24T07:12:39;11.90;99.90
23507;DHT22;11930;53.076;18.250;2023-03-24T07:15:06;11.90;99.90
23507;DHT22;11930;53.076;18.250;2023-03-24T07:17:33;12.00;99.90
23507;DHT22;11930;53.076;18.250;2023-03-24T07:20:24;12.00;99.90
23507;DHT22;11930;53.076;18.250;2023-03-24T07:22:57;12.00;99.90
23507;DHT22;11930;53.076;18.250;2023-03-24T07:25:23;12.00;99.90
23507;DHT22;11930;53.076;18.250;2023-03-24T07:27:57;12.00;99.90
23507;DHT22;11930;53.076;18.250;2023-03-24T07:30:24;12.00;99.90
23507;DHT22;11930;53.076;18.250;2023-03-24T07:32:51;12.00;99.90
23507;DHT22;11930;53.076;18.250;2023-03-24T07:35:19;11.90;99.90
23507;DHT22;11930;53.076;18.250;2023-03-24T07:37:46;11.90;99.90
23507;DHT22;11930;53.076;18.250;2023-03-24T07:40:13;11.90;99.90
23507;DHT22;11930;53.076;18.250;2023-03-24T07:42:41;11.90;99.90
23507;DHT22;11930;53.076;18.250;2023-03-24T07:45:24;11.80;99.90
23507;DHT22;11930;53.076;18.250;2023-03-24T07:47:51;11.70;99.90
23507;DHT22;11930;53.076;18.250;2023-03-24T07:50:17;11.60;99.90
23507;DHT22;11930;53.076;18.250;2023-03-24T07:52:46;11.50;99.90
23507;DHT22;11930;53.076;18.250;2023-03-24T07:55:14;11.40;99.90
23507;DHT22;11930;53.076;18.250;2023-03-24T07:57:53;11.40;99.90
23507;DHT22;11930;53.076;18.250;2023-03-24T08:00:20;11.30;99.90
23507;DHT22;11930;53.076;18.250;2023-03-24T08:03:01;11.30;99.90
23507;DHT22;11930;53.076;18.250;2023-03-24T08:05:46;11.30;99.90
23507;DHT22;11930;53.076;18.250;2023-03-24T08:08:19;11.30;99.90
23507;DHT22;11930;53.076;18.250;2023-03-24T08:10:47;11.30;99.90
23507;DHT22;11930;53.076;18.250;2023-03-24T08:13:15;11.30;99.90
23507;DHT22;11930;53.076;18.250;2023-03-24T08:15:41;11.30;99.90
23507;DHT22;11930;53.076;18.250;2023-03-24T08:18:07;11.40;99.90
23507;DHT22;11930;53.076;18.250;2023-03-24T08:20:33;11.30;99.90
23507;DHT22;11930;53.076;18.250;2023-03-24T08:22:59;11.40;99.90
23507;DHT22;11930;53.076;18.250;2023-03-24T08:25:29;11.40;99.90
23507;DHT22;11930;53.076;18.250;2023-03-24T08:27:56;11.50;99.90
23507;DHT22;11930;53.076;18.250;2023-03-24T08:30:23;11.60;99.90
23507;DHT22;11930;53.076;18.250;2023-03-24T08:32:55;12.00;99.90
23507;DHT22;11930;53.076;18.250;2023-03-24T08:35:25;12.00;99.90
23507;DHT22;11930;53.076;18.250;2023-03-24T08:37:52;12.30;99.90
23507;DHT22;11930;53.076;18.250;2023-03-24T08:40:20;12.50;99.90
23507;DHT22;11930;53.076;18.250;2023-03-24T08:42:50;12.70;99.90
23507;DHT22;11930;53.076;18.250;2023-03-24T08:45:18;12.90;99.90
23507;DHT22;11930;53.076;18.250;2023-03-24T08:47:47;13.10;99.90
23507;DHT22;11930;53.076;18.250;2023-03-24T08:50:13;13.20;99.90
23507;DHT22;11930;53.076;18.250;2023-03-24T08:52:40;13.30;99.90
23507;DHT22;11930;53.076;18.250;2023-03-24T08:55:07;13.50;99.90
23507;DHT22;11930;53.076;18.250;2023-03-24T08:57:35;13.60;99.90
23507;DHT22;11930;53.076;18.250;2023-03-24T09:00:01;13.80;99.90
23507;DHT22;11930;53.076;18.250;2023-03-24T09:02:37;14.00;99.90
23507;DHT22;11930;53.076;18.250;2023-03-24T09:05:04;14.20;99.90
23507;DHT22;11930;53.076;18.250;2023-03-24T09:07:30;14.30;99.90
23507;DHT22;11930;53.076;18.250;2023-03-24T09:09:56;14.40;99.90
23507;DHT22;11930;53.076;18.250;2023-03-24T09:12:22;14.40;99.90
23507;DHT22;11930;53.076;18.250;2023-03-24T09:14:48;14.40;99.90
23507;DHT22;11930;53.076;18.250;2023-03-24T09:17:16;14.40;99.90
23507;DHT22;11930;53.076;18.250;2023-03-24T09:19:42;14.50;99.90
23507;DHT22;11930;53.076;18.250;2023-03-24T09:22:10;14.80;99.90
23507;DHT22;11930;53.076;18.250;2023-03-24T09:24:36;15.20;99.90
23507;DHT22;11930;53.076;18.250;2023-03-24T09:27:03;15.70;99.90
23507;DHT22;11930;53.076;18.250;2023-03-24T09:29:29;16.00;99.90
23507;DHT22;11930;53.076;18.250;2023-03-24T09:31:56;16.50;99.90
23507;DHT22;11930;53.076;18.250;2023-03-24T09:34:23;17.00;99.90
23507;DHT22;11930;53.076;18.250;2023-03-24T09:36:49;17.40;99.90
23507;DHT22;11930;53.076;18.250;2023-03-24T09:39:15;17.70;99.90
23507;DHT22;11930;53.076;18.250;2023-03-24T09:41:43;17.80;99.90
23507;DHT22;11930;53.076;18.250;2023-03-24T09:50:01;17.40;99.90
23507;DHT22;11930;53.076;18.250;2023-03-24T09:52:41;17.20;99.90
23507;DHT22;11930;53.076;18.250;2023-03-24T09:55:16;17.10;99.90
23507;DHT22;11930;53.076;18.250;2023-03-24T09:57:45;16.90;99.90
23507;DHT22;11930;53.076;18.250;2023-03-24T10:00:23;16.70;99.90
23507;DHT22;11930;53.076;18.250;2023-03-24T10:02:50;16.50;99.90
23507;DHT22;11930;53.076;18.250;2023-03-24T10:05:21;16.40;99.90
23507;DHT22;11930;53.076;18.250;2023-03-24T10:13:34;16.30;99.90
23507;DHT22;11930;53.076;18.250;2023-03-24T10:16:09;16.30;99.90
23507;DHT22;11930;53.076;18.250;2023-03-24T10:21:25;16.80;99.90
23507;DHT22;11930;53.076;18.250;2023-03-24T10:24:22;17.10;99.90
23507;DHT22;11930;53.076;18.250;2023-03-24T10:29:32;17.60;99.90
23507;DHT22;11930;53.076;18.250;2023-03-24T10:32:04;17.70;99.90
23507;DHT22;11930;53.076;18.250;2023-03-24T10:34:32;17.70;99.90
23507;DHT22;11930;53.076;18.250;2023-03-24T10:37:01;17.70;99.90
23507;DHT22;11930;53.076;18.250;2023-03-24T10:39:29;17.70;99.90
23507;DHT22;11930;53.076;18.250;2023-03-24T10:41:56;17.50;99.90
23507;DHT22;11930;53.076;18.250;2023-03-24T10:44:24;17.40;99.90
23507;DHT22;11930;53.076;18.250;2023-03-24T10:46:54;17.30;99.90
23507;DHT22;11930;53.076;18.250;2023-03-24T10:49:22;17.30;99.90
23507;DHT22;11930;53.076;18.250;2023-03-24T10:51:53;17.40;99.90
23507;DHT22;11930;53.076;18.250;2023-03-24T10:54:25;17.40;99.90
23507;DHT22;11930;53.076;18.250;2023-03-24T11:02:18;17.70;99.90
23507;DHT22;11930;53.076;18.250;2023-03-24T11:04:56;17.70;99.90
23507;DHT22;11930;53.076;18.250;2023-03-24T11:07:33;17.80;99.90
23507;DHT22;11930;53.076;18.250;2023-03-24T11:10:14;17.90;99.90
23507;DHT22;11930;53.076;18.250;2023-03-24T11:12:58;18.00;99.90
23507;DHT22;11930;53.076;18.250;2023-03-24T11:15:29;18.00;99.90
23507;DHT22;11930;53.076;18.250;2023-03-24T11:18:00;18.00;99.90
23507;DHT22;11930;53.076;18.250;2023-03-24T11:20:32;18.00;99.90
23507;DHT22;11930;53.076;18.250;2023-03-24T11:26:21;18.00;99.90
23507;DHT22;11930;53.076;18.250;2023-03-24T11:28:56;18.10;99.90
23507;DHT22;11930;53.076;18.250;2023-03-24T11:31:33;18.10;99.90
23507;DHT22;11930;53.076;18.250;2023-03-24T11:34:11;18.10;99.90
23507;DHT22;11930;53.076;18.250;2023-03-24T11:36:46;18.20;99.90
23507;DHT22;11930;53.076;18.250;2023-03-24T11:39:21;18.20;99.90
23507;DHT22;11930;53.076;18.250;2023-03-24T11:49:50;18.00;99.90
23507;DHT22;11930;53.076;18.250;2023-03-24T11:52:26;18.00;99.90
23507;DHT22;11930;53.076;18.250;2023-03-24T11:54:54;18.00;99.90
23507;DHT22;11930;53.076;18.250;2023-03-24T11:57:39;18.00;99.90
23507;DHT22;11930;53.076;18.250;2023-03-24T12:00:14;17.90;99.90
23507;DHT22;11930;53.076;18.250;2023-03-24T12:11:50;17.50;99.90
23507;DHT22;11930;53.076;18.250;2023-03-24T12:17:33;17.20;99.90
23507;DHT22;11930;53.076;18.250;2023-03-24T12:23:23;16.80;99.90
23507;DHT22;11930;53.076;18.250;2023-03-24T12:45:47;15.90;99.90
23507;DHT22;11930;53.076;18.250;2023-03-24T12:51:10;15.60;99.90
23507;DHT22;11930;53.076;18.250;2023-03-24T12:56:17;15.30;99.90
23507;DHT22;11930;53.076;18.250;2023-03-24T12:59:05;15.20;99.90
23507;DHT22;11930;53.076;18.250;2023-03-24T13:04:10;15.10;99.90
23507;DHT22;11930;53.076;18.250;2023-03-24T13:06:44;15.10;99.90
23507;DHT22;11930;53.076;18.250;2023-03-24T13:17:23;15.40;99.90
23507;DHT22;11930;53.076;18.250;2023-03-24T13:19:51;15.40;99.90
23507;DHT22;11930;53.076;18.250;2023-03-24T13:22:19;15.50;99.90
23507;DHT22;11930;53.076;18.250;2023-03-24T13:24:47;15.60;99.90
23507;DHT22;11930;53.076;18.250;2023-03-24T13:27:39;15.70;99.90
23507;DHT22;11930;53.076;18.250;2023-03-24T13:32:50;15.90;99.90
23507;DHT22;11930;53.076;18.250;2023-03-24T13:40:38;16.20;99.90
23507;DHT22;11930;53.076;18.250;2023-03-24T13:43:12;16.30;99.90
23507;DHT22;11930;53.076;18.250;2023-03-24T13:45:46;16.40;99.90
23507;DHT22;11930;53.076;18.250;2023-03-24T13:48:16;16.50;99.90
23507;DHT22;11930;53.076;18.250;2023-03-24T13:50:58;16.50;99.90
23507;DHT22;11930;53.076;18.250;2023-03-24T13:56:37;16.50;99.90
23507;DHT22;11930;53.076;18.250;2023-03-24T13:59:07;16.40;99.90
23507;DHT22;11930;53.076;18.250;2023-03-24T14:01:43;16.50;99.90
23507;DHT22;11930;53.076;18.250;2023-03-24T14:04:22;16.50;99.90
23507;DHT22;11930;53.076;18.250;2023-03-24T14:06:57;16.50;99.90
23507;DHT22;11930;53.076;18.250;2023-03-24T14:09:30;16.60;99.90
23507;DHT22;11930;53.076;18.250;2023-03-24T14:14:26;16.60;99.90
23507;DHT22;11930;53.076;18.250;2023-03-24T14:17:05;16.60;99.90
23507;DHT22;11930;53.076;18.250;2023-03-24T14:19:36;16.60;99.90
23507;DHT22;11930;53.076;18.250;2023-03-24T14:22:21;16.70;99.90
23507;DHT22;11930;53.076;18.250;2023-03-24T14:24:58;16.70;99.90
23507;DHT22;11930;53.076;18.250;2023-03-24T14:27:34;16.70;99.90
23507;DHT22;11930;53.076;18.250;2023-03-24T14:32:53;16.70;99.90
23507;DHT22;11930;53.076;18.250;2023-03-24T14:35:50;16.80;99.90
23507;DHT22;11930;53.076;18.250;2023-03-24T14:38:24;16.80;99.90
23507;DHT22;11930;53.076;18.250;2023-03-24T14:40:56;16.90;99.90
23507;DHT22;11930;53.076;18.250;2023-03-24T14:44:14;16.90;99.90
23507;DHT22;11930;53.076;18.250;2023-03-24T14:49:23;16.90;99.90
23507;DHT22;11930;53.076;18.250;2023-03-24T14:54:43;16.90;99.90
23507;DHT22;11930;53.076;18.250;2023-03-24T14:57:21;16.90;99.90
23507;DHT22;11930;53.076;18.250;2023-03-24T15:07:40;16.90;99.90
23507;DHT22;11930;53.076;18.250;2023-03-24T15:10:13;16.90;99.90
23507;DHT22;11930;53.076;18.250;2023-03-24T15:12:55;16.90;99.90
23507;DHT22;11930;53.076;18.250;2023-03-24T15:15:23;16.90;99.90
23507;DHT22;11930;53.076;18.250;2023-03-24T15:17:50;16.90;99.90
23507;DHT22;11930;53.076;18.250;2023-03-24T15:22:46;16.80;99.90
23507;DHT22;11930;53.076;18.250;2023-03-24T15:25:14;16.80;99.90
23507;DHT22;11930;53.076;18.250;2023-03-24T15:27:47;16.60;99.90
23507;DHT22;11930;53.076;18.250;2023-03-24T15:30:14;16.60;99.90
23507;DHT22;11930;53.076;18.250;2023-03-24T15:32:41;16.50;99.90
23507;DHT22;11930;53.076;18.250;2023-03-24T15:35:15;16.40;99.90
23507;DHT22;11930;53.076;18.250;2023-03-24T15:37:42;16.30;99.90
23507;DHT22;11930;53.076;18.250;2023-03-24T15:42:53;16.10;99.90
23507;DHT22;11930;53.076;18.250;2023-03-24T15:47:52;16.10;99.90
23507;DHT22;11930;53.076;18.250;2023-03-24T15:50:33;16.00;99.90
23507;DHT22;11930;53.076;18.250;2023-03-24T15:55:44;15.90;99.90
23507;DHT22;11930;53.076;18.250;2023-03-24T15:58:24;15.90;99.90
23507;DHT22;11930;53.076;18.250;2023-03-24T16:00:53;15.90;99.90
23507;DHT22;11930;53.076;18.250;2023-03-24T16:03:22;15.90;99.90
23507;DHT22;11930;53.076;18.250;2023-03-24T16:05:54;15.80;99.90
23507;DHT22;11930;53.076;18.250;2023-03-24T16:08:33;15.80;99.90
23507;DHT22;11930;53.076;18.250;2023-03-24T16:11:03;15.70;99.90
23507;DHT22;11930;53.076;18.250;2023-03-24T16:13:33;15.70;99.90
23507;DHT22;11930;53.076;18.250;2023-03-24T16:16:07;15.60;99.90
23507;DHT22;11930;53.076;18.250;2023-03-24T16:18:36;15.60;99.90
23507;DHT22;11930;53.076;18.250;2023-03-24T16:21:19;15.50;99.90
23507;DHT22;11930;53.076;18.250;2023-03-24T16:23:46;15.50;99.90
23507;DHT22;11930;53.076;18.250;2023-03-24T16:26:20;15.40;99.90
23507;DHT22;11930;53.076;18.250;2023-03-24T16:28:46;15.30;99.90
23507;DHT22;11930;53.076;18.250;2023-03-24T16:31:20;15.30;99.90
23507;DHT22;11930;53.076;18.250;2023-03-24T16:33:48;15.30;99.90
23507;DHT22;11930;53.076;18.250;2023-03-24T16:36:14;15.20;99.90
23507;DHT22;11930;53.076;18.250;2023-03-24T16:38:46;15.10;99.90
23507;DHT22;11930;53.076;18.250;2023-03-24T16:41:14;15.10;99.90
23507;DHT22;11930;53.076;18.250;2023-03-24T16:43:41;15.00;99.90
23507;DHT22;11930;53.076;18.250;2023-03-24T16:46:21;15.00;99.90
23507;DHT22;11930;53.076;18.250;2023-03-24T16:48:54;14.90;99.90
23507;DHT22;11930;53.076;18.250;2023-03-24T16:51:21;14.90;99.90
23507;DHT22;11930;53.076;18.250;2023-03-24T16:53:48;14.90;99.90
23507;DHT22;11930;53.076;18.250;2023-03-24T16:56:17;14.80;99.90
23507;DHT22;11930;53.076;18.250;2023-03-24T16:58:44;14.80;99.90
23507;DHT22;11930;53.076;18.250;2023-03-24T17:06:35;14.70;99.90
23507;DHT22;11930;53.076;18.250;2023-03-24T17:09:03;14.70;99.90
23507;DHT22;11930;53.076;18.250;2023-03-24T17:11:39;14.60;99.90
23507;DHT22;11930;53.076;18.250;2023-03-24T17:14:07;14.60;99.90
23507;DHT22;11930;53.076;18.250;2023-03-24T17:16:39;14.50;99.90
23507;DHT22;11930;53.076;18.250;2023-03-24T17:19:21;14.40;99.90
23507;DHT22;11930;53.076;18.250;2023-03-24T17:21:58;14.40;99.90
23507;DHT22;11930;53.076;18.250;2023-03-24T17:24:26;14.40;99.90
23507;DHT22;11930;53.076;18.250;2023-03-24T17:26:53;14.30;99.90
23507;DHT22;11930;53.076;18.250;2023-03-24T17:29:19;14.30;99.90
23507;DHT22;11930;53.076;18.250;2023-03-24T17:31:45;14.20;99.90
23507;DHT22;11930;53.076;18.250;2023-03-24T17:34:12;14.20;99.90
23507;DHT22;11930;53.076;18.250;2023-03-24T17:36:39;14.10;99.90
23507;DHT22;11930;53.076;18.250;2023-03-24T17:39:06;14.10;99.90
23507;DHT22;11930;53.076;18.250;2023-03-24T17:41:35;14.00;99.90
23507;DHT22;11930;53.076;18.250;2023-03-24T17:44:01;14.10;99.90
23507;DHT22;11930;53.076;18.250;2023-03-24T17:46:28;14.00;99.90
23507;DHT22;11930;53.076;18.250;2023-03-24T17:48:54;14.00;99.90
23507;DHT22;11930;53.076;18.250;2023-03-24T17:51:20;13.90;99.90
23507;DHT22;11930;53.076;18.250;2023-03-24T17:53:46;13.90;99.90
23507;DHT22;11930;53.076;18.250;2023-03-24T17:56:12;13.90;99.90
23507;DHT22;11930;53.076;18.250;2023-03-24T17:58:38;13.80;99.90
23507;DHT22;11930;53.076;18.250;2023-03-24T18:01:04;13.70;99.90
23507;DHT22;11930;53.076;18.250;2023-03-24T18:03:34;13.70;99.90
23507;DHT22;11930;53.076;18.250;2023-03-24T18:06:08;13.60;99.90
23507;DHT22;11930;53.076;18.250;2023-03-24T18:08:35;13.60;99.90
23507;DHT22;11930;53.076;18.250;2023-03-24T18:11:06;13.60;99.90
23507;DHT22;11930;53.076;18.250;2023-03-24T18:13:32;13.50;99.90
23507;DHT22;11930;53.076;18.250;2023-03-24T18:15:58;13.50;99.90
23507;DHT22;11930;53.076;18.250;2023-03-24T18:18:26;13.50;99.90
23507;DHT22;11930;53.076;18.250;2023-03-24T18:20:52;13.40;99.90
23507;DHT22;11930;53.076;18.250;2023-03-24T18:23:18;13.40;99.90
23507;DHT22;11930;53.076;18.250;2023-03-24T18:25:47;13.30;99.90
23507;DHT22;11930;53.076;18.250;2023-03-24T18:28:13;13.10;99.90
23507;DHT22;11930;53.076;18.250;2023-03-24T18:30:40;13.00;99.90
23507;DHT22;11930;53.076;18.250;2023-03-24T18:33:07;12.80;99.90
23507;DHT22;11930;53.076;18.250;2023-03-24T18:35:33;12.70;99.90
23507;DHT22;11930;53.076;18.250;2023-03-24T18:37:59;12.60;99.90
23507;DHT22;11930;53.076;18.250;2023-03-24T18:40:26;12.50;99.90
23507;DHT22;11930;53.076;18.250;2023-03-24T18:42:52;12.40;99.90
23507;DHT22;11930;53.076;18.250;2023-03-24T18:45:18;12.30;99.90
23507;DHT22;11930;53.076;18.250;2023-03-24T18:47:45;12.20;99.90
23507;DHT22;11930;53.076;18.250;2023-03-24T18:50:13;12.10;99.90
23507;DHT22;11930;53.076;18.250;2023-03-24T18:52:39;12.00;99.90
23507;DHT22;11930;53.076;18.250;2023-03-24T18:55:09;11.90;99.90
23507;DHT22;11930;53.076;18.250;2023-03-24T18:57:37;11.80;99.90
23507;DHT22;11930;53.076;18.250;2023-03-24T19:00:05;11.80;99.90
23507;DHT22;11930;53.076;18.250;2023-03-24T19:02:34;11.70;99.90
23507;DHT22;11930;53.076;18.250;2023-03-24T19:05:01;11.70;99.90
23507;DHT22;11930;53.076;18.250;2023-03-24T19:07:28;11.60;99.90
23507;DHT22;11930;53.076;18.250;2023-03-24T19:09:54;11.50;99.90
23507;DHT22;11930;53.076;18.250;2023-03-24T19:12:21;11.40;99.90
23507;DHT22;11930;53.076;18.250;2023-03-24T19:14:50;11.30;99.90
23507;DHT22;11930;53.076;18.250;2023-03-24T19:17:18;11.20;99.90
23507;DHT22;11930;53.076;18.250;2023-03-24T19:19:45;11.10;99.90
23507;DHT22;11930;53.076;18.250;2023-03-24T19:22:10;11.00;99.90
23507;DHT22;11930;53.076;18.250;2023-03-24T19:24:37;10.90;99.90
23507;DHT22;11930;53.076;18.250;2023-03-24T19:27:03;10.80;99.90
23507;DHT22;11930;53.076;18.250;2023-03-24T19:29:29;10.70;99.90
23507;DHT22;11930;53.076;18.250;2023-03-24T19:31:55;10.70;99.90
23507;DHT22;11930;53.076;18.250;2023-03-24T19:34:21;10.60;99.90
23507;DHT22;11930;53.076;18.250;2023-03-24T19:36:48;10.60;99.90
23507;DHT22;11930;53.076;18.250;2023-03-24T19:39:15;10.50;99.90
23507;DHT22;11930;53.076;18.250;2023-03-24T19:41:42;10.40;99.90
23507;DHT22;11930;53.076;18.250;2023-03-24T19:44:08;10.40;99.90
23507;DHT22;11930;53.076;18.250;2023-03-24T19:46:34;10.40;99.90
23507;DHT22;11930;53.076;18.250;2023-03-24T19:49:00;10.40;99.90
23507;DHT22;11930;53.076;18.250;2023-03-24T19:51:26;10.40;99.90
23507;DHT22;11930;53.076;18.250;2023-03-24T19:53:52;10.40;99.90
23507;DHT22;11930;53.076;18.250;2023-03-24T19:56:18;10.30;99.90
23507;DHT22;11930;53.076;18.250;2023-03-24T19:58:45;10.30;99.90
23507;DHT22;11930;53.076;18.250;2023-03-24T20:01:11;10.30;99.90
23507;DHT22;11930;53.076;18.250;2023-03-24T20:03:37;10.30;99.90
23507;DHT22;11930;53.076;18.250;2023-03-24T20:06:05;10.20;99.90
23507;DHT22;11930;53.076;18.250;2023-03-24T20:08:35;10.20;99.90
23507;DHT22;11930;53.076;18.250;2023-03-24T20:11:02;10.20;99.90
23507;DHT22;11930;53.076;18.250;2023-03-24T20:13:30;10.20;99.90
23507;DHT22;11930;53.076;18.250;2023-03-24T20:15:56;10.20;99.90
23507;DHT22;11930;53.076;18.250;2023-03-24T20:18:22;10.20;99.90
23507;DHT22;11930;53.076;18.250;2023-03-24T20:20:48;10.10;99.90
23507;DHT22;11930;53.076;18.250;2023-03-24T20:23:15;10.10;99.90
23507;DHT22;11930;53.076;18.250;2023-03-24T20:25:44;10.00;99.90
23507;DHT22;11930;53.076;18.250;2023-03-24T20:28:11;10.00;99.90
23507;DHT22;11930;53.076;18.250;2023-03-24T20:30:38;9.90;99.90
23507;DHT22;11930;53.076;18.250;2023-03-24T20:33:05;9.80;99.90
23507;DHT22;11930;53.076;18.250;2023-03-24T20:35:31;9.80;99.90
23507;DHT22;11930;53.076;18.250;2023-03-24T20:37:57;9.80;99.90
23507;DHT22;11930;53.076;18.250;2023-03-24T20:40:23;9.80;99.90
23507;DHT22;11930;53.076;18.250;2023-03-24T20:42:50;9.60;99.90
23507;DHT22;11930;53.076;18.250;2023-03-24T20:45:16;9.60;99.90
23507;DHT22;11930;53.076;18.250;2023-03-24T20:47:43;9.50;99.90
23507;DHT22;11930;53.076;18.250;2023-03-24T20:50:11;9.50;99.90
23507;DHT22;11930;53.076;18.250;2023-03-24T20:52:37;9.40;99.90
23507;DHT22;11930;53.076;18.250;2023-03-24T20:55:03;9.40;99.90
23507;DHT22;11930;53.076;18.250;2023-03-24T20:57:33;9.30;99.90
23507;DHT22;11930;53.076;18.250;2023-03-24T21:00:00;9.20;99.90
23507;DHT22;11930;53.076;18.250;2023-03-24T21:02:27;9.10;99.90
23507;DHT22;11930;53.076;18.250;2023-03-24T21:04:54;9.10;99.90
23507;DHT22;11930;53.076;18.250;2023-03-24T21:07:20;9.00;99.90
23507;DHT22;11930;53.076;18.250;2023-03-24T21:09:46;9.00;99.90
23507;DHT22;11930;53.076;18.250;2023-03-24T21:12:12;9.00;99.90
23507;DHT22;11930;53.076;18.250;2023-03-24T21:14:38;8.90;99.90
23507;DHT22;11930;53.076;18.250;2023-03-24T21:17:06;8.90;99.90
23507;DHT22;11930;53.076;18.250;2023-03-24T21:19:32;8.80;99.90
23507;DHT22;11930;53.076;18.250;2023-03-24T21:21:58;8.80;99.90
23507;DHT22;11930;53.076;18.250;2023-03-24T21:24:27;8.70;99.90
23507;DHT22;11930;53.076;18.250;2023-03-24T21:26:54;8.70;99.90
23507;DHT22;11930;53.076;18.250;2023-03-24T21:29:22;8.70;99.90